sensor_id;sensor_type;location;lat;lon;timestamp;P1;durP1;ratioP1;P2;durP2;ratioP2
27367;SDS011;14839;48.106;11.618;2023-08-17T04:00:49;8.03;;;4.90;;
27367;SDS011;14839;48.106;11.618;2023-08-17T04:03:16;5.40;;;4.50;;
27367;SDS011;14839;48.106;11.618;2023-08-17T04:05:41;8.53;;;4.60;;
27367;SDS011;14839;48.106;11.618;2023-08-17T04:08:08;5.83;;;4.43;;
27367;SDS011;14839;48.106;11.618;2023-08-17T04:10:33;5.77;;;4.73;;
27367;SDS011;14839;48.106;11.618;2023-08-17T04:12:59;5.27;;;4.40;;
27367;SDS011;14839;48.106;11.618;2023-08-17T04:15:24;5.27;;;4.40;;
27367;SDS011;14839;48.106;11.618;2023-08-17T04:17:50;6.43;;;4.40;;
27367;SDS011;14839;48.106;11.618;2023-08-17T04:20:16;5.60;;;4.47;;
27367;SDS011;14839;48.106;11.618;2023-08-17T04:22:43;6.17;;;4.90;;
27367;SDS011;14839;48.106;11.618;2023-08-17T04:25:08;5.03;;;4.33;;
27367;SDS011;14839;48.106;11.618;2023-08-17T04:27:34;5.70;;;4.70;;
27367;SDS011;14839;48.106;11.618;2023-08-17T04:30:00;8.10;;;4.57;;
27367;SDS011;14839;48.106;11.618;2023-08-17T04:32:26;5.77;;;4.13;;
27367;SDS011;14839;48.106;11.618;2023-08-17T04:34:51;4.57;;;4.17;;
27367;SDS011;14839;48.106;11.618;2023-08-17T04:37:17;8.87;;;4.43;;
27367;SDS011;14839;48.106;11.618;2023-08-17T04:39:42;5.27;;;4.77;;
27367;SDS011;14839;48.106;11.618;2023-08-17T04:42:08;10.37;;;4.60;;
27367;SDS011;14839;48.106;11.618;2023-08-17T04:44:34;8.47;;;4.30;;
27367;SDS011;14839;48.106;11.618;2023-08-17T04:47:00;7.63;;;5.20;;
27367;SDS011;14839;48.106;11.618;2023-08-17T04:49:26;6.20;;;4.67;;
27367;SDS011;14839;48.106;11.618;2023-08-17T04:51:52;5.57;;;4.70;;
27367;SDS011;14839;48.106;11.618;2023-08-17T04:54:17;5.37;;;4.43;;
27367;SDS011;14839;48.106;11.618;2023-08-17T04:56:43;7.53;;;4.97;;
27367;SDS011;14839;48.106;11.618;2023-08-17T04:59:09;6.87;;;5.13;;
27367;SDS011;14839;48.106;11.618;2023-08-17T05:01:34;6.90;;;5.00;;
27367;SDS011;14839;48.106;11.618;2023-08-17T05:04:00;7.37;;;4.37;;
27367;SDS011;14839;48.106;11.618;2023-08-17T05:06:27;7.57;;;4.67;;
27367;SDS011;14839;48.106;11.618;2023-08-17T05:08:53;5.95;;;4.32;;
27367;SDS011;14839;48.106;11.618;2023-08-17T05:11:19;4.85;;;4.25;;
27367;SDS011;14839;48.106;11.618;2023-08-17T05:13:44;6.32;;;3.90;;
27367;SDS011;14839;48.106;11.618;2023-08-17T05:16:10;4.03;;;3.63;;
27367;SDS011;14839;48.106;11.618;2023-08-17T05:18:35;4.22;;;3.83;;
27367;SDS011;14839;48.106;11.618;2023-08-17T05:21:01;6.25;;;3.80;;
27367;SDS011;14839;48.106;11.618;2023-08-17T05:23:27;5.53;;;4.57;;
27367;SDS011;14839;48.106;11.618;2023-08-17T05:25:52;5.65;;;3.88;;
27367;SDS011;14839;48.106;11.618;2023-08-17T05:28:18;5.05;;;3.40;;
27367;SDS011;14839;48.106;11.618;2023-08-17T05:30:43;6.63;;;3.80;;
27367;SDS011;14839;48.106;11.618;2023-08-17T05:33:09;4.15;;;3.65;;
27367;SDS011;14839;48.106;11.618;2023-08-17T05:35:34;4.03;;;3.72;;
27367;SDS011;14839;48.106;11.618;2023-08-17T05:38:00;3.53;;;2.90;;
27367;SDS011;14839;48.106;11.618;2023-08-17T05:40:26;5.47;;;3.72;;
27367;SDS011;14839;48.106;11.618;2023-08-17T05:42:54;7.78;;;3.50;;
27367;SDS011;14839;48.106;11.618;2023-08-17T05:45:19;3.55;;;3.15;;
27367;SDS011;14839;48.106;11.618;2023-08-17T05:47:45;6.82;;;3.50;;
27367;SDS011;14839;48.106;11.618;2023-08-17T05:50:10;3.65;;;3.30;;
27367;SDS011;14839;48.106;11.618;2023-08-17T05:52:36;3.78;;;3.47;;
27367;SDS011;14839;48.106;11.618;2023-08-17T05:55:01;4.38;;;3.35;;
27367;SDS011;14839;48.106;11.618;2023-08-17T05:57:27;4.07;;;3.60;;
27367;SDS011;14839;48.106;11.618;2023-08-17T05:59:53;4.18;;;3.67;;
27367;SDS011;14839;48.106;11.618;2023-08-17T06:02:18;4.00;;;3.60;;
27367;SDS011;14839;48.106;11.618;2023-08-17T06:04:44;4.40;;;3.60;;
27367;SDS011;14839;48.106;11.618;2023-08-17T06:07:09;5.00;;;3.63;;
27367;SDS011;14839;48.106;11.618;2023-08-17T06:09:35;3.85;;;3.45;;
27367;SDS011;14839;48.106;11.618;2023-08-17T06:12:00;3.60;;;3.30;;
27367;SDS011;14839;48.106;11.618;2023-08-17T06:14:26;3.97;;;2.85;;
27367;SDS011;14839;48.106;11.618;2023-08-17T06:16:52;3.38;;;3.08;;
27367;SDS011;14839;48.106;11.618;2023-08-17T06:19:17;3.85;;;3.47;;
27367;SDS011;14839;48.106;11.618;2023-08-17T06:21:43;3.08;;;2.88;;
27367;SDS011;14839;48.106;11.618;2023-08-17T06:24:08;5.32;;;3.00;;
27367;SDS011;14839;48.106;11.618;2023-08-17T06:26:34;4.63;;;3.15;;
27367;SDS011;14839;48.106;11.618;2023-08-17T06:28:59;3.55;;;3.00;;
27367;SDS011;14839;48.106;11.618;2023-08-17T06:31:25;3.15;;;2.85;;
27367;SDS011;14839;48.106;11.618;2023-08-17T06:33:52;3.35;;;3.00;;
27367;SDS011;14839;48.106;11.618;2023-08-17T06:36:19;3.15;;;2.85;;
27367;SDS011;14839;48.106;11.618;2023-08-17T06:38:44;3.17;;;2.88;;
27367;SDS011;14839;48.106;11.618;2023-08-17T06:41:10;4.93;;;2.97;;
27367;SDS011;14839;48.106;11.618;2023-08-17T06:43:35;3.35;;;3.05;;
27367;SDS011;14839;48.106;11.618;2023-08-17T06:46:01;3.42;;;2.78;;
27367;SDS011;14839;48.106;11.618;2023-08-17T06:48:27;3.13;;;2.83;;
27367;SDS011;14839;48.106;11.618;2023-08-17T06:50:53;4.15;;;3.47;;
27367;SDS011;14839;48.106;11.618;2023-08-17T06:53:18;3.33;;;3.03;;
27367;SDS011;14839;48.106;11.618;2023-08-17T06:55:44;2.60;;;2.40;;
27367;SDS011;14839;48.106;11.618;2023-08-17T06:58:09;4.15;;;3.33;;
27367;SDS011;14839;48.106;11.618;2023-08-17T07:00:35;5.78;;;3.15;;
27367;SDS011;14839;48.106;11.618;2023-08-17T07:03:01;3.35;;;3.05;;
27367;SDS011;14839;48.106;11.618;2023-08-17T07:05:26;3.15;;;2.85;;
27367;SDS011;14839;48.106;11.618;2023-08-17T07:07:52;3.20;;;2.85;;
27367;SDS011;14839;48.106;11.618;2023-08-17T07:10:18;3.70;;;3.00;;
27367;SDS011;14839;48.106;11.618;2023-08-17T07:12:44;3.97;;;3.60;;
27367;SDS011;14839;48.106;11.618;2023-08-17T07:15:10;5.05;;;3.30;;
27367;SDS011;14839;48.106;11.618;2023-08-17T07:17:36;3.28;;;2.97;;
27367;SDS011;14839;48.106;11.618;2023-08-17T07:20:02;6.10;;;3.10;;
27367;SDS011;14839;48.106;11.618;2023-08-17T07:22:29;3.83;;;3.22;;
27367;SDS011;14839;48.106;11.618;2023-08-17T07:24:54;3.25;;;2.95;;
27367;SDS011;14839;48.106;11.618;2023-08-17T07:27:20;5.20;;;2.92;;
27367;SDS011;14839;48.106;11.618;2023-08-17T07:29:46;3.70;;;3.28;;
27367;SDS011;14839;48.106;11.618;2023-08-17T07:32:11;4.10;;;3.35;;
27367;SDS011;14839;48.106;11.618;2023-08-17T07:34:37;3.90;;;3.25;;
27367;SDS011;14839;48.106;11.618;2023-08-17T07:37:05;3.08;;;2.83;;
27367;SDS011;14839;48.106;11.618;2023-08-17T07:39:31;3.70;;;3.25;;
27367;SDS011;14839;48.106;11.618;2023-08-17T07:41:57;4.20;;;3.50;;
27367;SDS011;14839;48.106;11.618;2023-08-17T07:44:23;3.42;;;3.13;;
27367;SDS011;14839;48.106;11.618;2023-08-17T07:46:48;5.55;;;3.33;;
27367;SDS011;14839;48.106;11.618;2023-08-17T07:49:14;3.92;;;3.50;;
27367;SDS011;14839;48.106;11.618;2023-08-17T07:51:39;3.63;;;3.25;;
27367;SDS011;14839;48.106;11.618;2023-08-17T07:54:05;3.83;;;3.42;;
27367;SDS011;14839;48.106;11.618;2023-08-17T07:56:30;4.47;;;3.65;;
27367;SDS011;14839;48.106;11.618;2023-08-17T07:58:56;4.07;;;3.60;;
27367;SDS011;14839;48.106;11.618;2023-08-17T08:01:22;4.30;;;3.13;;
27367;SDS011;14839;48.106;11.618;2023-08-17T08:03:48;4.90;;;3.47;;
27367;SDS011;14839;48.106;11.618;2023-08-17T08:06:13;3.47;;;3.17;;
27367;SDS011;14839;48.106;11.618;2023-08-17T08:08:39;5.10;;;3.33;;
27367;SDS011;14839;48.106;11.618;2023-08-17T08:11:05;3.50;;;3.17;;
27367;SDS011;14839;48.106;11.618;2023-08-17T08:13:31;3.63;;;3.33;;
27367;SDS011;14839;48.106;11.618;2023-08-17T08:15:58;4.78;;;2.90;;
27367;SDS011;14839;48.106;11.618;2023-08-17T08:18:24;3.40;;;3.10;;
27367;SDS011;14839;48.106;11.618;2023-08-17T08:20:50;4.32;;;3.20;;
27367;SDS011;14839;48.106;11.618;2023-08-17T08:23:15;5.53;;;3.42;;
27367;SDS011;14839;48.106;11.618;2023-08-17T08:25:41;3.80;;;3.25;;
27367;SDS011;14839;48.106;11.618;2023-08-17T08:28:07;7.45;;;3.80;;
27367;SDS011;14839;48.106;11.618;2023-08-17T08:30:33;3.83;;;3.30;;
27367;SDS011;14839;48.106;11.618;2023-08-17T08:32:59;7.72;;;3.70;;
27367;SDS011;14839;48.106;11.618;2023-08-17T08:35:25;3.45;;;3.15;;
27367;SDS011;14839;48.106;11.618;2023-08-17T08:37:50;3.63;;;3.33;;
27367;SDS011;14839;48.106;11.618;2023-08-17T08:40:16;3.80;;;3.50;;
27367;SDS011;14839;48.106;11.618;2023-08-17T08:42:42;4.10;;;3.70;;
27367;SDS011;14839;48.106;11.618;2023-08-17T08:45:09;3.60;;;3.30;;
27367;SDS011;14839;48.106;11.618;2023-08-17T08:47:38;4.95;;;3.38;;
27367;SDS011;14839;48.106;11.618;2023-08-17T08:50:06;7.00;;;3.42;;
27367;SDS011;14839;48.106;11.618;2023-08-17T08:53:17;4.10;;;3.70;;
27367;SDS011;14839;48.106;11.618;2023-08-17T08:55:30;3.15;;;2.85;;
27367;SDS011;14839;48.106;11.618;2023-08-17T08:58:02;3.72;;;3.20;;
27367;SDS011;14839;48.106;11.618;2023-08-17T09:00:29;3.22;;;2.92;;
27367;SDS011;14839;48.106;11.618;2023-08-17T09:02:55;5.70;;;3.20;;
27367;SDS011;14839;48.106;11.618;2023-08-17T09:05:21;4.05;;;3.10;;
27367;SDS011;14839;48.106;11.618;2023-08-17T09:07:50;3.40;;;3.10;;
27367;SDS011;14839;48.106;11.618;2023-08-17T09:10:17;4.20;;;2.72;;
27367;SDS011;14839;48.106;11.618;2023-08-17T09:12:45;3.28;;;2.75;;
27367;SDS011;14839;48.106;11.618;2023-08-17T09:15:12;5.68;;;3.25;;
27367;SDS011;14839;48.106;11.618;2023-08-17T09:17:37;2.72;;;2.53;;
27367;SDS011;14839;48.106;11.618;2023-08-17T09:20:03;3.90;;;2.47;;
27367;SDS011;14839;48.106;11.618;2023-08-17T09:22:41;3.38;;;2.20;;
27367;SDS011;14839;48.106;11.618;2023-08-17T09:25:09;2.97;;;2.50;;
27367;SDS011;14839;48.106;11.618;2023-08-17T09:27:36;2.72;;;2.53;;
27367;SDS011;14839;48.106;11.618;2023-08-17T09:30:03;3.20;;;2.90;;
27367;SDS011;14839;48.106;11.618;2023-08-17T09:32:33;2.85;;;2.55;;
27367;SDS011;14839;48.106;11.618;2023-08-17T09:35:05;3.30;;;3.00;;
27367;SDS011;14839;48.106;11.618;2023-08-17T09:37:32;3.53;;;2.60;;
27367;SDS011;14839;48.106;11.618;2023-08-17T09:39:58;3.28;;;2.85;;
27367;SDS011;14839;48.106;11.618;2023-08-17T09:42:24;3.50;;;3.20;;
27367;SDS011;14839;48.106;11.618;2023-08-17T09:44:52;3.67;;;2.90;;
27367;SDS011;14839;48.106;11.618;2023-08-17T09:47:18;2.83;;;2.63;;
27367;SDS011;14839;48.106;11.618;2023-08-17T09:49:49;3.95;;;2.88;;
27367;SDS011;14839;48.106;11.618;2023-08-17T09:52:19;4.32;;;2.88;;
27367;SDS011;14839;48.106;11.618;2023-08-17T09:54:51;2.90;;;2.70;;
27367;SDS011;14839;48.106;11.618;2023-08-17T09:57:19;2.50;;;2.30;;
27367;SDS011;14839;48.106;11.618;2023-08-17T09:59:45;2.78;;;2.58;;
27367;SDS011;14839;48.106;11.618;2023-08-17T10:02:18;2.72;;;2.53;;
27367;SDS011;14839;48.106;11.618;2023-08-17T10:04:47;2.47;;;2.28;;
27367;SDS011;14839;48.106;11.618;2023-08-17T10:07:17;3.03;;;2.72;;
27367;SDS011;14839;48.106;11.618;2023-08-17T10:09:45;3.38;;;2.75;;
27367;SDS011;14839;48.106;11.618;2023-08-17T10:12:18;3.85;;;2.70;;
27367;SDS011;14839;48.106;11.618;2023-08-17T10:14:53;4.57;;;2.60;;
27367;SDS011;14839;48.106;11.618;2023-08-17T10:17:27;4.47;;;2.60;;
27367;SDS011;14839;48.106;11.618;2023-08-17T10:19:59;3.10;;;2.60;;
27367;SDS011;14839;48.106;11.618;2023-08-17T10:22:31;4.38;;;2.47;;
27367;SDS011;14839;48.106;11.618;2023-08-17T10:25:05;3.60;;;2.75;;
27367;SDS011;14839;48.106;11.618;2023-08-17T10:27:33;2.88;;;2.40;;
27367;SDS011;14839;48.106;11.618;2023-08-17T10:30:00;3.65;;;2.67;;
27367;SDS011;14839;48.106;11.618;2023-08-17T10:32:26;3.58;;;2.70;;
27367;SDS011;14839;48.106;11.618;2023-08-17T10:34:53;6.40;;;3.13;;
27367;SDS011;14839;48.106;11.618;2023-08-17T10:37:19;3.53;;;3.05;;
27367;SDS011;14839;48.106;11.618;2023-08-17T10:39:47;3.45;;;2.90;;
27367;SDS011;14839;48.106;11.618;2023-08-17T10:42:14;3.35;;;2.90;;
27367;SDS011;14839;48.106;11.618;2023-08-17T10:44:44;3.25;;;2.55;;
27367;SDS011;14839;48.106;11.618;2023-08-17T10:47:21;3.60;;;2.83;;
27367;SDS011;14839;48.106;11.618;2023-08-17T10:52:30;2.97;;;2.70;;
27367;SDS011;14839;48.106;11.618;2023-08-17T10:55:04;3.47;;;3.17;;
27367;SDS011;14839;48.106;11.618;2023-08-17T10:57:35;3.35;;;3.00;;
27367;SDS011;14839;48.106;11.618;2023-08-17T11:00:18;4.15;;;3.10;;
27367;SDS011;14839;48.106;11.618;2023-08-17T11:03:10;2.47;;;2.28;;
27367;SDS011;14839;48.106;11.618;2023-08-17T11:05:47;3.45;;;2.78;;
27367;SDS011;14839;48.106;11.618;2023-08-17T11:11:14;3.63;;;2.78;;
27367;SDS011;14839;48.106;11.618;2023-08-17T11:13:40;4.38;;;2.95;;
27367;SDS011;14839;48.106;11.618;2023-08-17T11:16:07;3.00;;;2.70;;
27367;SDS011;14839;48.106;11.618;2023-08-17T11:18:34;3.35;;;2.40;;
27367;SDS011;14839;48.106;11.618;2023-08-17T11:21:01;3.90;;;2.80;;
27367;SDS011;14839;48.106;11.618;2023-08-17T11:23:29;2.85;;;2.58;;
27367;SDS011;14839;48.106;11.618;2023-08-17T11:25:56;3.53;;;2.47;;
27367;SDS011;14839;48.106;11.618;2023-08-17T11:28:22;3.58;;;2.92;;
27367;SDS011;14839;48.106;11.618;2023-08-17T11:30:57;3.05;;;2.80;;
27367;SDS011;14839;48.106;11.618;2023-08-17T11:33:27;3.50;;;2.92;;
27367;SDS011;14839;48.106;11.618;2023-08-17T11:35:57;6.55;;;3.75;;
27367;SDS011;14839;48.106;11.618;2023-08-17T11:38:24;3.30;;;2.90;;
27367;SDS011;14839;48.106;11.618;2023-08-17T11:40:51;5.38;;;3.40;;
27367;SDS011;14839;48.106;11.618;2023-08-17T11:43:17;4.03;;;3.63;;
27367;SDS011;14839;48.106;11.618;2023-08-17T11:45:45;4.18;;;3.78;;
27367;SDS011;14839;48.106;11.618;2023-08-17T11:48:11;4.03;;;3.55;;
27367;SDS011;14839;48.106;11.618;2023-08-17T11:50:37;3.75;;;3.45;;
27367;SDS011;14839;48.106;11.618;2023-08-17T11:53:04;3.15;;;2.85;;
27367;SDS011;14839;48.106;11.618;2023-08-17T11:55:29;5.55;;;3.83;;
27367;SDS011;14839;48.106;11.618;2023-08-17T11:57:55;4.70;;;3.58;;
27367;SDS011;14839;48.106;11.618;2023-08-17T12:00:21;3.97;;;3.58;;
27367;SDS011;14839;48.106;11.618;2023-08-17T12:02:50;3.90;;;3.50;;
27367;SDS011;14839;48.106;11.618;2023-08-17T12:05:23;3.28;;;3.08;;
27367;SDS011;14839;48.106;11.618;2023-08-17T12:07:55;5.68;;;3.80;;
27367;SDS011;14839;48.106;11.618;2023-08-17T12:10:21;3.78;;;3.33;;
27367;SDS011;14839;48.106;11.618;2023-08-17T12:12:49;4.25;;;3.88;;
27367;SDS011;14839;48.106;11.618;2023-08-17T12:15:18;4.10;;;3.70;;
27367;SDS011;14839;48.106;11.618;2023-08-17T12:17:47;4.28;;;3.63;;
27367;SDS011;14839;48.106;11.618;2023-08-17T12:20:17;4.38;;;3.90;;
27367;SDS011;14839;48.106;11.618;2023-08-17T12:22:44;4.55;;;4.15;;
27367;SDS011;14839;48.106;11.618;2023-08-17T12:25:10;3.78;;;3.45;;
27367;SDS011;14839;48.106;11.618;2023-08-17T12:27:36;5.13;;;3.90;;
27367;SDS011;14839;48.106;11.618;2023-08-17T12:30:01;6.40;;;3.97;;
27367;SDS011;14839;48.106;11.618;2023-08-17T12:32:27;6.38;;;4.35;;
27367;SDS011;14839;48.106;11.618;2023-08-17T12:34:53;5.15;;;3.88;;
27367;SDS011;14839;48.106;11.618;2023-08-17T12:37:19;4.32;;;3.97;;
27367;SDS011;14839;48.106;11.618;2023-08-17T12:39:48;9.48;;;3.83;;
27367;SDS011;14839;48.106;11.618;2023-08-17T12:42:14;5.68;;;3.67;;
27367;SDS011;14839;48.106;11.618;2023-08-17T12:44:43;6.93;;;3.55;;
27367;SDS011;14839;48.106;11.618;2023-08-17T12:47:08;3.95;;;3.55;;
27367;SDS011;14839;48.106;11.618;2023-08-17T12:49:35;3.90;;;3.60;;
27367;SDS011;14839;48.106;11.618;2023-08-17T12:52:01;5.47;;;4.13;;
27367;SDS011;14839;48.106;11.618;2023-08-17T12:54:26;4.38;;;3.97;;
27367;SDS011;14839;48.106;11.618;2023-08-17T12:56:52;6.28;;;4.07;;
27367;SDS011;14839;48.106;11.618;2023-08-17T12:59:17;3.83;;;3.53;;
27367;SDS011;14839;48.106;11.618;2023-08-17T13:01:43;4.22;;;3.67;;
27367;SDS011;14839;48.106;11.618;2023-08-17T13:04:08;3.92;;;3.63;;
27367;SDS011;14839;48.106;11.618;2023-08-17T13:06:34;4.95;;;3.83;;
27367;SDS011;14839;48.106;11.618;2023-08-17T13:09:00;6.40;;;3.45;;
27367;SDS011;14839;48.106;11.618;2023-08-17T13:11:25;4.13;;;3.60;;
27367;SDS011;14839;48.106;11.618;2023-08-17T13:13:51;4.80;;;3.60;;
27367;SDS011;14839;48.106;11.618;2023-08-17T13:16:16;3.55;;;3.25;;
27367;SDS011;14839;48.106;11.618;2023-08-17T13:18:42;3.30;;;3.00;;
27367;SDS011;14839;48.106;11.618;2023-08-17T13:21:07;3.72;;;3.15;;
27367;SDS011;14839;48.106;11.618;2023-08-17T13:23:33;5.35;;;3.45;;
27367;SDS011;14839;48.106;11.618;2023-08-17T13:25:58;4.25;;;2.92;;
27367;SDS011;14839;48.106;11.618;2023-08-17T13:28:24;4.10;;;3.08;;
27367;SDS011;14839;48.106;11.618;2023-08-17T13:30:50;3.22;;;2.92;;
27367;SDS011;14839;48.106;11.618;2023-08-17T13:33:15;5.28;;;3.20;;
27367;SDS011;14839;48.106;11.618;2023-08-17T13:35:42;3.45;;;2.92;;
27367;SDS011;14839;48.106;11.618;2023-08-17T13:38:07;3.35;;;3.05;;
27367;SDS011;14839;48.106;11.618;2023-08-17T13:40:33;3.38;;;3.00;;
27367;SDS011;14839;48.106;11.618;2023-08-17T13:42:59;3.13;;;2.80;;
27367;SDS011;14839;48.106;11.618;2023-08-17T13:45:25;3.15;;;2.95;;
27367;SDS011;14839;48.106;11.618;2023-08-17T13:47:51;2.60;;;2.40;;
27367;SDS011;14839;48.106;11.618;2023-08-17T13:50:17;2.95;;;2.58;;
27367;SDS011;14839;48.106;11.618;2023-08-17T13:52:43;3.47;;;3.17;;
27367;SDS011;14839;48.106;11.618;2023-08-17T13:55:09;2.58;;;2.35;;
27367;SDS011;14839;48.106;11.618;2023-08-17T13:57:35;3.67;;;3.13;;
27367;SDS011;14839;48.106;11.618;2023-08-17T14:00:01;4.70;;;3.22;;
27367;SDS011;14839;48.106;11.618;2023-08-17T14:02:26;3.72;;;3.08;;
27367;SDS011;14839;48.106;11.618;2023-08-17T14:04:52;4.65;;;3.08;;
27367;SDS011;14839;48.106;11.618;2023-08-17T14:07:18;4.07;;;3.10;;
27367;SDS011;14839;48.106;11.618;2023-08-17T14:09:43;3.38;;;3.05;;
27367;SDS011;14839;48.106;11.618;2023-08-17T14:12:09;4.35;;;3.50;;
27367;SDS011;14839;48.106;11.618;2023-08-17T14:14:34;4.97;;;3.08;;
27367;SDS011;14839;48.106;11.618;2023-08-17T14:17:00;3.45;;;3.15;;
27367;SDS011;14839;48.106;11.618;2023-08-17T14:19:27;3.97;;;3.10;;
27367;SDS011;14839;48.106;11.618;2023-08-17T14:21:53;3.35;;;3.03;;
27367;SDS011;14839;48.106;11.618;2023-08-17T14:24:19;3.28;;;2.70;;
27367;SDS011;14839;48.106;11.618;2023-08-17T14:26:44;4.00;;;3.22;;
27367;SDS011;14839;48.106;11.618;2023-08-17T14:29:10;3.92;;;3.03;;
27367;SDS011;14839;48.106;11.618;2023-08-17T14:31:35;4.43;;;2.85;;
27367;SDS011;14839;48.106;11.618;2023-08-17T14:34:01;3.78;;;3.10;;
27367;SDS011;14839;48.106;11.618;2023-08-17T14:36:26;4.32;;;3.00;;
27367;SDS011;14839;48.106;11.618;2023-08-17T14:38:52;3.35;;;3.05;;
27367;SDS011;14839;48.106;11.618;2023-08-17T14:41:18;4.35;;;3.92;;
27367;SDS011;14839;48.106;11.618;2023-08-17T14:43:43;4.20;;;3.60;;
27367;SDS011;14839;48.106;11.618;2023-08-17T14:46:09;4.00;;;3.58;;
27367;SDS011;14839;48.106;11.618;2023-08-17T14:48:34;4.57;;;4.13;;
27367;SDS011;14839;48.106;11.618;2023-08-17T14:51:00;4.32;;;3.92;;
27367;SDS011;14839;48.106;11.618;2023-08-17T14:53:26;4.28;;;3.58;;
27367;SDS011;14839;48.106;11.618;2023-08-17T14:55:51;4.60;;;3.40;;
27367;SDS011;14839;48.106;11.618;2023-08-17T14:58:17;9.10;;;3.60;;
27367;SDS011;14839;48.106;11.618;2023-08-17T15:00:43;4.93;;;3.53;;
27367;SDS011;14839;48.106;11.618;2023-08-17T15:03:10;5.03;;;3.45;;
27367;SDS011;14839;48.106;11.618;2023-08-17T15:05:35;3.72;;;3.42;;
27367;SDS011;14839;48.106;11.618;2023-08-17T15:08:02;7.57;;;3.75;;
27367;SDS011;14839;48.106;11.618;2023-08-17T15:10:29;4.35;;;3.92;;
27367;SDS011;14839;48.106;11.618;2023-08-17T15:12:54;7.18;;;4.05;;
27367;SDS011;14839;48.106;11.618;2023-08-17T15:15:20;4.30;;;3.53;;
27367;SDS011;14839;48.106;11.618;2023-08-17T15:17:46;5.00;;;3.70;;
27367;SDS011;14839;48.106;11.618;2023-08-17T15:20:11;4.78;;;3.30;;
27367;SDS011;14839;48.106;11.618;2023-08-17T15:22:37;3.65;;;3.35;;
27367;SDS011;14839;48.106;11.618;2023-08-17T15:25:03;3.58;;;3.28;;
27367;SDS011;14839;48.106;11.618;2023-08-17T15:27:28;3.97;;;3.63;;
27367;SDS011;14839;48.106;11.618;2023-08-17T15:29:54;5.20;;;3.50;;
27367;SDS011;14839;48.106;11.618;2023-08-17T15:32:19;5.85;;;3.83;;
27367;SDS011;14839;48.106;11.618;2023-08-17T15:34:45;5.30;;;3.63;;
27367;SDS011;14839;48.106;11.618;2023-08-17T15:37:11;6.72;;;3.53;;
27367;SDS011;14839;48.106;11.618;2023-08-17T15:39:36;4.82;;;3.75;;
27367;SDS011;14839;48.106;11.618;2023-08-17T15:42:02;3.85;;;3.22;;
27367;SDS011;14839;48.106;11.618;2023-08-17T15:44:28;5.20;;;3.60;;
27367;SDS011;14839;48.106;11.618;2023-08-17T15:46:55;4.13;;;3.80;;
27367;SDS011;14839;48.106;11.618;2023-08-17T15:49:21;4.72;;;4.10;;
27367;SDS011;14839;48.106;11.618;2023-08-17T15:51:47;4.18;;;3.60;;
27367;SDS011;14839;48.106;11.618;2023-08-17T15:54:13;4.18;;;3.83;;
27367;SDS011;14839;48.106;11.618;2023-08-17T15:56:38;4.45;;;4.05;;
27367;SDS011;14839;48.106;11.618;2023-08-17T15:59:04;4.93;;;3.97;;
27367;SDS011;14839;48.106;11.618;2023-08-17T16:01:29;4.20;;;3.80;;
27367;SDS011;14839;48.106;11.618;2023-08-17T16:03:55;6.10;;;3.85;;
27367;SDS011;14839;48.106;11.618;2023-08-17T16:06:21;4.10;;;3.42;;
27367;SDS011;14839;48.106;11.618;2023-08-17T16:08:46;5.10;;;4.20;;
27367;SDS011;14839;48.106;11.618;2023-08-17T16:11:12;4.45;;;4.05;;
27367;SDS011;14839;48.106;11.618;2023-08-17T16:13:38;4.82;;;4.22;;
27367;SDS011;14839;48.106;11.618;2023-08-17T16:16:04;6.35;;;3.67;;
27367;SDS011;14839;48.106;11.618;2023-08-17T16:18:29;7.32;;;3.90;;
27367;SDS011;14839;48.106;11.618;2023-08-17T16:20:55;4.93;;;3.72;;
27367;SDS011;14839;48.106;11.618;2023-08-17T16:23:21;4.00;;;3.47;;
27367;SDS011;14839;48.106;11.618;2023-08-17T16:25:47;5.82;;;4.00;;
27367;SDS011;14839;48.106;11.618;2023-08-17T16:28:12;4.53;;;3.70;;
27367;SDS011;14839;48.106;11.618;2023-08-17T16:30:38;3.55;;;3.20;;
27367;SDS011;14839;48.106;11.618;2023-08-17T16:33:06;4.03;;;3.00;;
27367;SDS011;14839;48.106;11.618;2023-08-17T16:35:32;2.20;;;1.90;;
27367;SDS011;14839;48.106;11.618;2023-08-17T16:37:58;2.35;;;1.88;;
27367;SDS011;14839;48.106;11.618;2023-08-17T16:40:23;1.58;;;1.48;;
27367;SDS011;14839;48.106;11.618;2023-08-17T16:42:49;4.43;;;1.77;;
27367;SDS011;14839;48.106;11.618;2023-08-17T16:45:15;2.28;;;2.08;;
27367;SDS011;14839;48.106;11.618;2023-08-17T16:47:43;5.88;;;1.58;;
27367;SDS011;14839;48.106;11.618;2023-08-17T16:50:09;2.13;;;1.52;;
27367;SDS011;14839;48.106;11.618;2023-08-17T16:52:35;2.88;;;1.88;;
27367;SDS011;14839;48.106;11.618;2023-08-17T16:55:00;3.50;;;1.75;;
27367;SDS011;14839;48.106;11.618;2023-08-17T16:57:26;2.65;;;1.80;;
27367;SDS011;14839;48.106;11.618;2023-08-17T16:59:52;2.90;;;1.80;;
27367;SDS011;14839;48.106;11.618;2023-08-17T17:02:17;1.85;;;1.58;;
27367;SDS011;14839;48.106;11.618;2023-08-17T17:04:43;2.40;;;1.70;;
27367;SDS011;14839;48.106;11.618;2023-08-17T17:07:08;3.25;;;1.92;;
27367;SDS011;14839;48.106;11.618;2023-08-17T17:09:34;1.77;;;1.55;;
27367;SDS011;14839;48.106;11.618;2023-08-17T17:12:00;3.45;;;1.63;;
27367;SDS011;14839;48.106;11.618;2023-08-17T17:14:27;3.45;;;1.88;;
27367;SDS011;14839;48.106;11.618;2023-08-17T17:16:53;2.72;;;1.80;;
27367;SDS011;14839;48.106;11.618;2023-08-17T17:19:18;2.65;;;1.60;;
27367;SDS011;14839;48.106;11.618;2023-08-17T17:21:44;1.85;;;1.10;;
27367;SDS011;14839;48.106;11.618;2023-08-17T17:24:10;4.28;;;1.85;;
27367;SDS011;14839;48.106;11.618;2023-08-17T17:26:35;1.50;;;1.20;;
27367;SDS011;14839;48.106;11.618;2023-08-17T17:29:03;2.50;;;1.30;;
27367;SDS011;14839;48.106;11.618;2023-08-17T17:31:32;3.40;;;1.42;;
27367;SDS011;14839;48.106;11.618;2023-08-17T17:33:58;3.53;;;2.05;;
27367;SDS011;14839;48.106;11.618;2023-08-17T17:36:25;1.42;;;1.33;;
27367;SDS011;14839;48.106;11.618;2023-08-17T17:38:51;2.55;;;1.38;;
27367;SDS011;14839;48.106;11.618;2023-08-17T17:41:17;1.92;;;1.38;;
27367;SDS011;14839;48.106;11.618;2023-08-17T17:43:43;1.98;;;1.40;;
27367;SDS011;14839;48.106;11.618;2023-08-17T17:46:08;5.10;;;2.00;;
27367;SDS011;14839;48.106;11.618;2023-08-17T17:48:34;4.05;;;1.80;;
27367;SDS011;14839;48.106;11.618;2023-08-17T17:51:00;3.17;;;1.90;;
27367;SDS011;14839;48.106;11.618;2023-08-17T17:53:25;1.52;;;1.40;;
27367;SDS011;14839;48.106;11.618;2023-08-17T17:55:51;2.22;;;1.60;;
27367;SDS011;14839;48.106;11.618;2023-08-17T17:58:16;2.60;;;1.52;;
27367;SDS011;14839;48.106;11.618;2023-08-17T18:00:42;3.88;;;1.98;;
27367;SDS011;14839;48.106;11.618;2023-08-17T18:03:08;3.63;;;2.17;;
27367;SDS011;14839;48.106;11.618;2023-08-17T18:05:36;3.13;;;2.15;;
27367;SDS011;14839;48.106;11.618;2023-08-17T18:08:02;2.58;;;2.08;;
27367;SDS011;14839;48.106;11.618;2023-08-17T18:10:28;3.17;;;1.92;;
27367;SDS011;14839;48.106;11.618;2023-08-17T18:12:53;2.65;;;1.65;;
27367;SDS011;14839;48.106;11.618;2023-08-17T18:15:19;2.15;;;1.70;;
27367;SDS011;14839;48.106;11.618;2023-08-17T18:17:45;4.30;;;1.63;;
27367;SDS011;14839;48.106;11.618;2023-08-17T18:20:10;2.92;;;1.45;;
27367;SDS011;14839;48.106;11.618;2023-08-17T18:22:37;3.47;;;1.60;;
27367;SDS011;14839;48.106;11.618;2023-08-17T18:25:04;1.83;;;1.58;;
27367;SDS011;14839;48.106;11.618;2023-08-17T18:27:30;1.70;;;1.60;;
27367;SDS011;14839;48.106;11.618;2023-08-17T18:29:55;1.80;;;1.58;;
27367;SDS011;14839;48.106;11.618;2023-08-17T18:32:21;3.50;;;2.03;;
27367;SDS011;14839;48.106;11.618;2023-08-17T18:34:47;2.42;;;1.73;;